Thursday, September 20, 2018, 6:38 PM EDT
Back to Local

KLBE, Latrobe / Westmorland

Location: Latrobe, PA, United States Lat: 40.283
Local Time: 6:38 PM EDT (22:38 GMT) Lon: -79.4
Time Zone: US/Eastern Elev: 1184 ft

Show me the last for .
Show Decoded

2018-09-20 17:50 METAR KLBE 202150Z 21005KT 15SM FEW100 28/19 A3011 =
2018-09-20 16:50 METAR KLBE 202050Z 24005KT 10SM FEW040 28/19 A3011 =
2018-09-20 15:50 METAR KLBE 201950Z 22005KT 10SM FEW040 28/18 A3012 =
2018-09-20 14:50 METAR KLBE 201850Z 24006KT 10SM FEW040 28/19 A3013 =
2018-09-20 13:50 METAR KLBE 201750Z 27005KT 10SM FEW040 27/19 A3015 =
2018-09-20 12:50 METAR KLBE 201650Z 00000KT 10SM FEW040 27/19 A3017 =
2018-09-20 11:50 METAR KLBE 201550Z 24005KT 15SM SKC 26/19 A3018 =
2018-09-20 10:50 METAR KLBE 201450Z 00000KT 15SM SKC 24/19 A3018 =
2018-09-20 09:50 METAR KLBE 201350Z 00000KT 15SM SKC 20/20 A3017 =
2018-09-20 08:50 METAR KLBE 201250Z 00000KT 15SM SKC 17/17 A3016 =
2018-09-20 07:50 METAR KLBE 201150Z 00000KT 10SM SKC 15/15 A3015 =
2018-09-20 06:50 METAR KLBE 201050Z 00000KT 10SM SKC 15/15 A3013 =
2018-09-20 05:55 METAR KLBE 200955Z AUTO 00000KT 8SM CLR 15/15 A3012 RMK AO2 =
2018-09-20 05:35 METAR KLBE 200935Z AUTO 00000KT 8SM CLR 14/14 A3012 RMK AO2 =
2018-09-20 05:15 METAR KLBE 200915Z AUTO 00000KT 8SM CLR 15/15 A3010 RMK AO2 =
2018-09-20 04:55 METAR KLBE 200855Z AUTO 00000KT 7SM CLR 15/15 A3009 RMK AO2 =
2018-09-20 04:35 METAR KLBE 200835Z AUTO 00000KT 8SM CLR 15/15 A3008 RMK AO2 =
2018-09-20 04:15 METAR KLBE 200815Z AUTO 00000KT 7SM CLR 15/15 A3009 RMK AO2 =
2018-09-20 03:55 METAR KLBE 200755Z AUTO 00000KT 5SM BR CLR 14/15 A3008 RMK AO2 =
2018-09-20 03:35 METAR KLBE 200735Z AUTO 00000KT M1/4SM FG VV000 15/15 A3008 RMK AO2 =
2018-09-20 03:15 METAR KLBE 200715Z AUTO 00000KT 4SM BR CLR 16/16 A3008 RMK AO2 =
2018-09-20 02:55 METAR KLBE 200655Z AUTO 00000KT 1/2SM BR VV005 16/16 A3010 RMK AO2 =
2018-09-20 02:35 METAR KLBE 200635Z AUTO 00000KT 3SM BR CLR 15/15 A3010 RMK AO2 =
2018-09-20 02:15 METAR KLBE 200615Z AUTO 00000KT 3/4SM BR VV005 16/16 A3010 RMK AO2 VIS 1/2V5 =
2018-09-20 01:55 METAR KLBE 200555Z AUTO 00000KT 1 1/2SM BR CLR 16/16 A3010 RMK AO2 =
2018-09-20 01:35 METAR KLBE 200535Z AUTO 00000KT 2 1/2SM BR CLR 16/16 A3010 RMK AO2 VIS 1V5 =
2018-09-20 01:15 METAR KLBE 200515Z AUTO 00000KT 9SM CLR 17/17 A3010 RMK AO2 =
2018-09-20 00:55 METAR KLBE 200455Z AUTO 00000KT 10SM CLR 17/17 A3011 RMK AO2 =
2018-09-20 00:35 METAR KLBE 200435Z AUTO 00000KT 10SM CLR 17/17 A3011 RMK AO2 =
2018-09-20 00:15 METAR KLBE 200415Z AUTO 00000KT 10SM CLR 17/17 A3011 RMK AO2 =
2018-09-19 23:55 METAR KLBE 200355Z AUTO 10SM CLR 17/17 A3011 RMK AO2 =
2018-09-19 23:35 METAR KLBE 200335Z AUTO 00000KT 10SM CLR 18/18 A3011 RMK AO2 =
2018-09-19 23:15 METAR KLBE 200315Z AUTO 00000KT 10SM CLR 18/18 A3011 RMK AO2 =
2018-09-19 22:55 METAR KLBE 200255Z AUTO 00000KT 10SM CLR 18/18 A3011 RMK AO2 =
2018-09-19 22:35 METAR KLBE 200235Z AUTO 00000KT 10SM CLR 18/18 A3010 RMK AO2 =
2018-09-19 22:15 METAR KLBE 200215Z AUTO 00000KT 10SM CLR 18/18 A3010 RMK AO2 =
2018-09-19 21:50 METAR KLBE 200150Z 00000KT 10SM SKC 18/19 A3009 =
2018-09-19 20:50 METAR KLBE 200050Z 00000KT 10SM SKC 20/19 A3007 =
2018-09-19 19:50 METAR KLBE 192350Z 00000KT 10SM SKC 22/19 A3005 =
2018-09-19 18:50 METAR KLBE 192250Z 00000KT 10SM SKC 25/17 A3004 =

Support USWX by starting your Amazon purchase here.